Time;durP1;ratioP1;P1;durP2;ratioP2;P2;SDS_P1;SDS_P2;PMS_P1;PMS_P2;Temp;Humidity;BMP_temperature;BMP_pressure;BME280_temperature;BME280_humidity;BME280_pressure;Samples;Min_cycle;Max_cycle;Signal;HPM_P1;HPM_P2
2021/11/03 00:00:25;;;;;;;;;5.75;5.00;;;;;21.23;42.31;99266.44;5016613;28;45401;-60
2021/11/03 00:02:50;;;;;;;;;6.00;5.00;;;;;21.27;42.06;99260.78;5016350;28;45706;-58
2021/11/03 00:05:17;;;;;;;;;5.75;5.75;;;;;21.31;42.43;99262.19;5016226;28;45392;-55
2021/11/03 00:07:44;;;;;;;;;5.00;5.00;;;;;21.33;42.45;99251.53;5016103;28;45440;-59
2021/11/03 00:10:14;;;;;;;;;4.25;4.00;;;;;21.36;42.05;99253.91;5016508;28;45538;-59
2021/11/03 00:12:40;;;;;;;;;4.00;4.00;;;;;21.37;42.14;99252.94;5016257;28;46689;-60
2021/11/03 00:15:07;;;;;;;;;5.25;4.25;;;;;21.37;42.21;99250.31;4998662;28;45289;-60
2021/11/03 00:17:32;;;;;;;;;5.00;5.00;;;;;21.39;42.23;99253.63;5016062;28;45192;-60
2021/11/03 00:19:58;;;;;;;;;6.25;4.25;;;;;21.41;42.10;99253.53;5016246;28;45373;-60
2021/11/03 00:22:23;;;;;;;;;3.00;3.00;;;;;21.41;41.96;99256.16;5015999;28;45564;-60
2021/11/03 00:24:49;;;;;;;;;5.00;5.00;;;;;21.42;42.29;99244.66;5016202;28;45233;-63
2021/11/03 00:27:14;;;;;;;;;4.00;4.00;;;;;21.44;42.20;99250.63;4998304;28;45415;-60
2021/11/03 00:29:40;;;;;;;;;4.00;4.00;;;;;21.45;42.14;99244.38;5016097;28;45419;-55
2021/11/03 00:32:07;;;;;;;;;4.00;4.00;;;;;21.45;42.30;99239.94;5015928;28;46589;-52
2021/11/03 00:34:33;;;;;;;;;3.25;3.25;;;;;21.47;41.93;99239.81;5016000;28;45381;-60
2021/11/03 00:36:58;;;;;;;;;5.00;5.00;;;;;21.47;42.20;99232.75;5015825;28;45505;-58
2021/11/03 00:39:25;;;;;;;;;3.00;3.00;;;;;21.48;42.06;99230.94;5016113;28;45408;-60
2021/11/03 00:41:51;;;;;;;;;4.25;4.25;;;;;21.49;42.04;99223.88;5015280;28;45440;-60
2021/11/03 00:44:16;;;;;;;;;4.50;4.50;;;;;21.49;41.98;99227.34;5015699;28;45245;-59
2021/11/03 00:46:41;;;;;;;;;4.75;4.75;;;;;21.49;41.85;99221.25;5015797;28;45296;-60
2021/11/03 00:49:07;;;;;;;;;5.25;5.25;;;;;21.49;42.00;99222.06;5016271;28;45548;-61
2021/11/03 00:51:33;;;;;;;;;4.00;3.00;;;;;21.48;41.92;99217.75;5015528;28;45365;-60
2021/11/03 00:53:58;;;;;;;;;5.00;4.00;;;;;21.49;42.10;99216.78;5015596;28;45345;-57
2021/11/03 00:56:24;;;;;;;;;5.25;4.00;;;;;21.49;42.21;99215.97;5015452;28;45446;-60
2021/11/03 00:58:49;;;;;;;;;4.00;4.00;;;;;21.49;41.85;99215.97;5015755;28;45786;-60
2021/11/03 01:01:14;;;;;;;;;5.00;4.00;;;;;21.48;42.48;99209.84;5018162;28;45480;-60
2021/11/03 01:03:40;;;;;;;;;5.00;5.00;;;;;21.48;41.96;99204.56;5019122;28;45504;-57
2021/11/03 01:06:05;;;;;;;;;4.25;4.25;;;;;21.45;41.77;99203.06;5019357;28;45632;-44
2021/11/03 01:08:32;;;;;;;;;5.00;3.50;;;;;21.46;42.20;99206.50;5019065;28;45513;-47
2021/11/03 01:10:57;;;;;;;;;2.75;2.75;;;;;21.44;41.97;99198.75;5001129;28;47012;-45
2021/11/03 01:13:24;;;;;;;;;5.25;4.00;;;;;21.45;42.08;99204.84;5018895;28;45313;-53
2021/11/03 01:15:50;;;;;;;;;4.00;4.00;;;;;21.44;41.86;99204.00;5018945;28;45274;-45
2021/11/03 01:18:16;;;;;;;;;4.25;4.25;;;;;21.40;41.76;99202.59;5019098;28;45317;-52
2021/11/03 01:20:43;;;;;;;;;5.00;5.00;;;;;21.42;41.99;99213.03;5018559;28;46208;-56
2021/11/03 01:23:09;;;;;;;;;5.00;4.25;;;;;21.41;42.07;99208.72;5019326;28;45821;-47
2021/11/03 01:25:35;;;;;;;;;4.75;3.75;;;;;21.42;42.22;99210.38;5019162;28;45349;-45
2021/11/03 01:28:01;;;;;;;;;4.50;4.50;;;;;21.37;42.27;99207.28;5018994;28;45530;-48
2021/11/03 01:30:27;;;;;;;;;5.00;3.00;;;;;21.41;41.82;99213.97;5018076;28;45440;-50
2021/11/03 01:32:55;;;;;;;;;3.25;3.00;;;;;21.39;41.91;99205.38;5018676;28;45951;-58
2021/11/03 01:35:21;;;;;;;;;3.00;3.00;;;;;21.39;42.10;99216.72;5018867;28;45365;-60
2021/11/03 01:37:46;;;;;;;;;4.25;4.25;;;;;21.38;42.42;99220.34;5018883;28;45618;-51
2021/11/03 01:40:15;;;;;;;;;5.50;4.00;;;;;21.40;41.99;99225.50;5018713;28;46563;-54
2021/11/03 01:42:42;;;;;;;;;3.50;3.50;;;;;21.38;41.91;99222.16;5018919;28;45428;-59
2021/11/03 01:45:10;;;;;;;;;4.25;4.25;;;;;21.39;42.11;99221.19;5018502;28;45480;-60
2021/11/03 01:47:42;;;;;;;;;3.00;3.00;;;;;21.37;41.86;99220.47;5018929;28;45560;-52
2021/11/03 01:50:19;;;;;;;;;4.25;3.00;;;;;21.37;42.08;99225.75;5018700;28;47409;-60
2021/11/03 01:52:48;;;;;;;;;5.00;4.00;;;;;21.35;42.01;99222.41;5018466;28;45926;-59
2021/11/03 01:55:15;;;;;;;;;3.50;3.50;;;;;21.34;42.14;99229.47;5000828;28;45416;-47
2021/11/03 01:57:47;;;;;;;;;4.00;4.00;;;;;21.33;41.95;99221.72;5018903;28;45354;-47
2021/11/03 02:00:18;;;;;;;;;2.75;2.75;;;;;21.34;42.47;99228.63;5018330;28;45517;-44
2021/11/03 02:02:43;;;;;;;;;3.75;3.50;;;;;21.31;42.20;99224.47;5018451;28;46021;-50
2021/11/03 02:05:13;;;;;;;;;3.00;3.00;;;;;21.30;42.28;99223.63;5018398;28;45456;-57
2021/11/03 02:07:40;;;;;;;;;2.00;2.00;;;;;21.28;42.48;99222.94;5000684;28;45398;-46
2021/11/03 02:10:06;;;;;;;;;3.75;3.75;;;;;21.27;42.57;99213.34;5017925;28;45471;-57
2021/11/03 02:12:31;;;;;;;;;3.00;3.00;;;;;21.22;42.46;99209.44;5016039;28;45438;-61
2021/11/03 02:14:57;;;;;;;;;3.00;3.00;;;;;21.25;42.26;99215.28;5018111;28;45451;-46
2021/11/03 02:17:24;;;;;;;;;3.75;2.25;;;;;21.26;42.16;99216.94;5018249;28;45601;-49
2021/11/03 02:19:53;;;;;;;;;4.75;4.75;;;;;21.24;42.56;99213.59;5017635;28;46549;-48
2021/11/03 02:22:42;;;;;;;;;4.00;2.50;;;;;21.24;42.32;99224.13;5017772;28;45307;-52
2021/11/03 02:25:14;;;;;;;;;3.00;3.00;;;;;21.22;42.13;99218.16;5033363;28;45422;-48
2021/11/03 02:27:43;;;;;;;;;4.50;3.00;;;;;21.22;42.11;99219.97;5018144;28;45553;-47
2021/11/03 02:30:12;;;;;;;;;4.00;4.00;;;;;21.21;42.06;99223.56;5017801;28;45479;-50
2021/11/03 02:32:41;;;;;;;;;3.50;3.50;;;;;21.20;42.10;99219.25;5017693;28;45359;-46
2021/11/03 02:35:06;;;;;;;;;3.75;3.00;;;;;21.19;42.10;99218.44;5017840;28;45357;-50
2021/11/03 02:37:32;;;;;;;;;3.00;3.00;;;;;21.17;42.65;99218.53;5017742;28;45317;-48
2021/11/03 02:40:07;;;;;;;;;3.75;3.00;;;;;21.17;42.71;99218.53;5017014;28;46692;-52
2021/11/03 02:42:39;;;;;;;;;4.50;3.00;;;;;21.16;42.76;99216.03;5017604;28;45448;-47
2021/11/03 02:45:09;;;;;;;;;3.00;3.00;;;;;21.16;42.13;99216.03;5017594;28;45446;-53
2021/11/03 02:47:34;;;;;;;;;3.00;3.00;;;;;21.15;42.75;99219.63;5017877;28;45605;-54
2021/11/03 02:49:59;;;;;;;;;2.00;2.00;;;;;21.12;42.38;99219.88;5017269;28;45373;-57
2021/11/03 02:52:26;;;;;;;;;3.25;3.25;;;;;21.13;42.79;99216.28;5017082;28;45345;-55
2021/11/03 02:54:52;;;;;;;;;2.75;1.00;;;;;21.13;42.74;99226.84;5017612;28;45380;-47
2021/11/03 02:57:19;;;;;;;;;2.75;2.75;;;;;21.11;42.46;99232.25;5017533;28;45381;-61
2021/11/03 02:59:45;;;;;;;;;1.00;1.00;;;;;21.10;42.70;99225.28;5017404;28;45550;-45
2021/11/03 03:02:12;;;;;;;;;4.00;2.75;;;;;21.10;42.36;99227.13;5017246;28;45451;-48
2021/11/03 03:04:41;;;;;;;;;4.50;3.50;;;;;21.09;42.29;99228.06;5017378;28;45475;-48
2021/11/03 03:07:10;;;;;;;;;4.50;3.00;;;;;21.09;42.59;99236.78;5017291;28;45322;-44
2021/11/03 03:09:36;;;;;;;;;4.00;3.50;;;;;21.09;42.85;99230.69;5017018;28;45520;-48
2021/11/03 03:12:05;;;;;;;;;2.75;2.75;;;;;21.07;42.51;99225.53;5017154;28;45505;-47
2021/11/03 03:14:36;;;;;;;;;3.00;3.00;;;;;21.07;42.54;99230.81;5017087;28;45377;-53
2021/11/03 03:17:02;;;;;;;;;4.75;3.50;;;;;21.05;42.31;99230.13;5017137;28;45554;-55
2021/11/03 03:19:28;;;;;;;;;2.25;2.00;;;;;21.05;42.95;99231.91;4999118;28;45846;-48
2021/11/03 03:21:53;;;;;;;;;3.25;3.25;;;;;21.04;42.29;99231.09;5016855;28;45478;-48
2021/11/03 03:24:19;;;;;;;;;3.25;3.00;;;;;21.04;42.90;99238.13;5016772;28;45424;-55
2021/11/03 03:26:47;;;;;;;;;2.25;2.00;;;;;21.04;42.81;99232.88;5017436;28;45250;-51
2021/11/03 03:29:13;;;;;;;;;3.00;3.00;;;;;21.01;42.58;99240.06;5016788;28;45715;-48
2021/11/03 03:31:39;;;;;;;;;4.00;4.00;;;;;21.00;42.89;99238.38;5016742;28;45222;-53
2021/11/03 03:34:11;;;;;;;;;4.25;2.50;;;;;21.02;42.37;99243.53;5016636;28;45619;-55
2021/11/03 03:36:38;;;;;;;;;3.00;3.00;;;;;21.01;42.79;99253.22;4999399;28;45294;-56
2021/11/03 03:39:08;;;;;;;;;3.00;3.00;;;;;21.00;42.71;99254.19;5016446;28;46043;-48
2021/11/03 03:41:34;;;;;;;;;2.00;2.00;;;;;20.99;42.57;99254.31;5016746;28;45408;-53
2021/11/03 03:44:00;;;;;;;;;5.50;2.25;;;;;20.98;42.52;99256.13;5016817;28;45313;-55
2021/11/03 03:46:26;;;;;;;;;2.25;2.00;;;;;20.97;43.07;99259.72;5016686;28;45530;-51
2021/11/03 03:48:52;;;;;;;;;2.50;2.50;;;;;20.98;42.88;99263.19;5016488;28;45467;-54
2021/11/03 03:51:18;;;;;;;;;5.00;1.75;;;;;20.97;42.65;99265.00;5016866;28;45349;-58
2021/11/03 03:53:44;;;;;;;;;2.00;2.00;;;;;20.96;43.00;99267.75;5016778;28;45224;-57
2021/11/03 03:56:11;;;;;;;;;3.00;3.00;;;;;20.96;43.12;99265.09;4999078;28;45918;-51
2021/11/03 03:58:37;;;;;;;;;2.25;2.25;;;;;20.95;42.56;99266.91;5016034;28;46465;-61
2021/11/03 04:01:03;;;;;;;;;3.75;2.00;;;;;20.95;42.73;99269.56;4998187;28;45323;-52
2021/11/03 04:03:28;;;;;;;;;2.00;2.00;;;;;20.94;42.86;99269.69;5016284;28;45438;-50
2021/11/03 04:05:55;;;;;;;;;4.00;2.50;;;;;20.94;42.46;99267.88;5016734;28;45353;-52
2021/11/03 04:08:22;;;;;;;;;2.00;2.00;;;;;20.94;42.81;99270.50;5016123;28;45426;-47
2021/11/03 04:10:48;;;;;;;;;3.00;3.00;;;;;20.94;43.01;99270.50;4998650;28;45446;-51
2021/11/03 04:13:14;;;;;;;;;3.25;3.00;;;;;20.93;42.55;99279.38;5016216;28;45386;-56
2021/11/03 04:15:40;;;;;;;;;2.00;2.00;;;;;20.92;42.98;99277.69;4998507;28;45438;-56
2021/11/03 04:18:05;;;;;;;;;2.00;2.00;;;;;20.93;42.92;99274.09;5016149;28;45580;-57
2021/11/03 04:20:31;;;;;;;;;2.75;2.75;;;;;20.92;42.84;99277.69;5015988;28;45321;-50
2021/11/03 04:22:57;;;;;;;;;5.50;3.00;;;;;20.92;42.77;99282.97;5016060;28;45376;-58
2021/11/03 04:25:22;;;;;;;;;3.00;2.00;;;;;20.92;42.84;99284.78;5016189;28;45559;-55
2021/11/03 04:27:48;;;;;;;;;2.50;2.00;;;;;20.91;43.03;99283.09;5016070;28;45293;-59
2021/11/03 04:30:16;;;;;;;;;3.00;3.00;;;;;20.91;42.56;99286.56;5015764;28;45404;-51
2021/11/03 04:32:42;;;;;;;;;3.75;2.25;;;;;20.91;42.65;99299.72;5015970;28;45421;-57
2021/11/03 04:35:08;;;;;;;;;1.75;1.50;;;;;20.89;42.77;99298.19;5018821;28;45382;-54
2021/11/03 04:37:35;;;;;;;;;2.00;2.00;;;;;20.91;42.65;99301.53;5022394;28;45495;-53
2021/11/03 04:40:00;;;;;;;;;2.00;2.00;;;;;20.90;43.17;99300.69;5022480;28;45378;-53
2021/11/03 04:42:26;;;;;;;;;3.00;2.00;;;;;20.88;42.78;99305.25;5022506;28;45368;-54
2021/11/03 04:44:51;;;;;;;;;2.00;2.00;;;;;20.88;43.08;99296.50;5022887;28;45302;-53
2021/11/03 04:47:16;;;;;;;;;3.00;2.00;;;;;20.87;43.24;99308.84;5022170;28;45515;-47
2021/11/03 04:49:42;;;;;;;;;1.00;1.00;;;;;20.88;42.80;99313.16;5022358;28;45397;-46
2021/11/03 04:52:08;;;;;;;;;2.00;2.00;;;;;20.85;43.20;99302.88;5022454;28;45412;-50
2021/11/03 04:54:33;;;;;;;;;3.00;2.00;;;;;20.86;42.69;99309.81;5022629;28;45531;-50
2021/11/03 04:56:59;;;;;;;;;2.00;2.00;;;;;20.86;43.08;99309.81;5022243;28;45480;-49
2021/11/03 04:59:25;;;;;;;;;2.00;2.00;;;;;20.85;43.14;99303.69;5021983;28;45294;-47
2021/11/03 05:01:50;;;;;;;;;4.00;2.75;;;;;20.86;42.75;99309.81;5022769;28;45190;-45
2021/11/03 05:04:16;;;;;;;;;2.00;2.00;;;;;20.84;42.83;99309.09;5022415;28;45575;-54
2021/11/03 05:06:44;;;;;;;;;1.75;1.75;;;;;20.85;42.67;99308.13;5022253;28;45407;-61
2021/11/03 05:09:10;;;;;;;;;3.00;3.00;;;;;20.85;42.95;99308.13;5004112;28;45364;-61
2021/11/03 05:11:36;;;;;;;;;2.00;2.00;;;;;20.83;42.75;99305.63;5022049;28;45376;-51
2021/11/03 05:14:02;;;;;;;;;2.00;2.00;;;;;20.84;42.89;99312.53;5022341;28;45642;-56
2021/11/03 05:16:28;;;;;;;;;2.25;2.25;;;;;20.89;43.43;99311.34;5021892;28;45550;-55
2021/11/03 05:18:55;;;;;;;;;0.00;0.00;;;;;20.90;42.88;99316.47;5004187;28;45669;-53
2021/11/03 05:21:20;;;;;;;;;2.00;1.75;;;;;20.95;43.26;99321.38;5022380;28;45448;-58
2021/11/03 05:23:47;;;;;;;;;3.00;2.25;;;;;20.99;43.42;99325.44;5022124;28;45246;-57
2021/11/03 05:26:16;;;;;;;;;1.75;1.50;;;;;21.04;43.14;99317.16;5021780;28;47423;-62
2021/11/03 05:28:45;;;;;;;;;2.00;2.00;;;;;21.07;43.29;99323.00;5021850;28;45962;-62
2021/11/03 05:31:11;;;;;;;;;2.00;2.00;;;;;21.14;43.00;99321.56;5021982;28;45445;-57
2021/11/03 05:33:36;;;;;;;;;4.00;3.00;;;;;21.17;42.96;99323.09;5022100;28;45211;-59
2021/11/03 05:36:01;;;;;;;;;2.00;2.00;;;;;21.24;42.83;99334.81;5021644;28;46002;-58
2021/11/03 05:38:27;;;;;;;;;2.50;2.50;;;;;21.29;42.94;99326.50;5003679;28;45268;-58
2021/11/03 05:40:52;;;;;;;;;2.75;2.00;;;;;21.33;42.76;99327.13;5022236;28;45410;-61
2021/11/03 05:43:18;;;;;;;;;3.00;3.00;;;;;21.37;42.81;99323.25;5021888;28;45533;-60
2021/11/03 05:45:43;;;;;;;;;3.00;3.00;;;;;21.39;42.77;99326.59;5003374;28;47361;-61
2021/11/03 05:48:10;;;;;;;;;3.00;3.00;;;;;21.43;42.86;99333.31;5018238;28;45393;-61
2021/11/03 05:50:36;;;;;;;;;3.75;3.75;;;;;21.46;42.40;99322.47;5018500;28;45466;-60
2021/11/03 05:53:02;;;;;;;;;2.00;2.00;;;;;21.50;42.53;99331.00;5015703;28;45341;-61
2021/11/03 05:55:28;;;;;;;;;3.00;3.00;;;;;21.52;42.56;99329.91;5018001;28;45381;-59
2021/11/03 05:57:54;;;;;;;;;3.00;2.00;;;;;21.54;42.71;99335.88;5018047;28;45437;-60
2021/11/03 06:00:24;;;;;;;;;3.00;3.00;;;;;21.55;42.78;99331.44;5017957;28;45485;-54
2021/11/03 06:02:50;;;;;;;;;2.75;2.75;;;;;21.55;42.68;99334.06;5018451;28;45447;-57
2021/11/03 06:05:15;;;;;;;;;1.00;1.00;;;;;21.56;42.35;99333.94;5012624;28;45464;-59
2021/11/03 06:07:49;;;;;;;;;3.75;3.00;;;;;21.58;42.87;99342.53;4998082;28;45664;-57
2021/11/03 06:10:16;;;;;;;;;3.00;3.00;;;;;21.58;42.75;99339.09;4998181;28;45249;-60
2021/11/03 06:12:42;;;;;;;;;4.50;3.25;;;;;21.58;42.27;99347.81;4998060;28;45574;-60
2021/11/03 06:15:07;;;;;;;;;6.00;4.00;;;;;21.59;42.57;99346.06;4998066;28;45409;-60
2021/11/03 06:17:33;;;;;;;;;3.00;3.00;;;;;21.58;42.74;99345.19;4998041;28;45496;-59
2021/11/03 06:19:58;;;;;;;;;4.25;3.00;;;;;21.59;42.25;99348.72;4996589;28;45830;-55
2021/11/03 06:22:23;;;;;;;;;3.00;3.00;;;;;21.58;42.46;99347.81;4998207;28;45867;-56
2021/11/03 06:24:50;;;;;;;;;3.00;3.00;;;;;21.60;42.09;99347.75;4996219;28;46893;-60
2021/11/03 06:27:16;;;;;;;;;4.25;4.25;;;;;21.59;42.21;99349.53;5032943;28;45763;-51
2021/11/03 06:29:41;;;;;;;;;3.50;2.00;;;;;21.58;42.19;99349.63;5017912;28;45663;-52
2021/11/03 06:32:07;;;;;;;;;4.75;4.75;;;;;21.59;42.28;99353.97;5017850;28;45527;-53
2021/11/03 06:34:32;;;;;;;;;7.50;6.00;;;;;21.59;42.32;99359.25;5017242;28;45433;-49
2021/11/03 06:36:58;;;;;;;;;6.50;6.00;;;;;21.58;42.13;99354.91;5017765;28;45373;-54
2021/11/03 06:39:24;;;;;;;;;7.00;4.75;;;;;21.56;42.49;99362.94;5017880;28;45283;-55
2021/11/03 06:41:49;;;;;;;;;9.00;6.75;;;;;21.56;42.30;99370.84;5017751;28;45603;-55
2021/11/03 06:44:15;;;;;;;;;5.25;5.25;;;;;21.51;42.26;99366.91;5017534;28;46123;-59
2021/11/03 06:46:41;;;;;;;;;6.00;5.00;;;;;21.52;42.18;99374.72;5017470;28;45504;-59
2021/11/03 06:49:06;;;;;;;;;5.75;5.75;;;;;21.50;41.92;99371.34;5017586;28;45676;-58
2021/11/03 06:51:33;;;;;;;;;5.00;5.00;;;;;21.51;41.93;99382.72;5017635;28;45448;-57
2021/11/03 06:54:00;;;;;;;;;5.00;5.00;;;;;21.50;42.20;99381.91;5017135;28;46602;-58
2021/11/03 06:56:26;;;;;;;;;5.50;5.50;;;;;21.47;41.82;99382.16;5017661;28;45370;-60
2021/11/03 06:58:51;;;;;;;;;4.00;4.00;;;;;21.46;42.07;99391.00;5016933;28;45369;-59
2021/11/03 07:01:17;;;;;;;;;4.75;4.75;;;;;21.48;41.91;99389.09;5017420;28;45345;-55
2021/11/03 07:03:43;;;;;;;;;5.00;4.00;;;;;21.47;42.00;99397.97;5017154;28;45412;-56
2021/11/03 07:06:09;;;;;;;;;5.00;5.00;;;;;21.45;41.98;99400.72;5017489;28;45239;-52
2021/11/03 07:08:35;;;;;;;;;4.00;4.00;;;;;21.46;41.88;99415.59;5017207;28;45544;-49
2021/11/03 07:11:00;;;;;;;;;4.00;4.00;;;;;21.45;41.92;99411.28;5017544;28;45439;-56
2021/11/03 07:13:28;;;;;;;;;7.50;5.00;;;;;21.44;41.82;99419.31;5017349;28;45968;-51
2021/11/03 07:15:54;;;;;;;;;5.00;4.00;;;;;21.44;41.87;99419.31;5017315;28;45341;-51
2021/11/03 07:18:21;;;;;;;;;4.25;4.25;;;;;21.43;41.81;99423.75;5017176;28;45452;-56
2021/11/03 07:20:47;;;;;;;;;6.25;6.25;;;;;21.43;42.22;99428.19;5017112;28;45504;-55
2021/11/03 07:23:16;;;;;;;;;5.00;5.00;;;;;21.41;42.07;99435.38;4998749;28;45589;-55
2021/11/03 07:25:42;;;;;;;;;4.00;4.00;;;;;21.43;41.83;99433.47;5017032;28;45823;-51
2021/11/03 07:28:08;;;;;;;;;5.50;4.00;;;;;21.41;42.09;99441.47;5017095;28;45440;-53
2021/11/03 07:30:36;;;;;;;;;5.50;5.50;;;;;21.42;41.85;99431.78;5017303;28;45552;-44
2021/11/03 07:33:03;;;;;;;;;5.75;5.50;;;;;21.41;42.10;99441.47;5016872;28;45700;-43
2021/11/03 07:35:28;;;;;;;;;5.00;5.00;;;;;21.41;42.23;99435.38;4999180;28;45757;-47
2021/11/03 07:37:55;;;;;;;;;2.50;2.50;;;;;21.41;42.08;99446.75;4998908;28;45406;-58
2021/11/03 07:40:27;;;;;;;;;4.00;4.00;;;;;21.40;41.83;99454.78;5016960;28;45587;-55
2021/11/03 07:42:53;;;;;;;;;4.25;4.25;;;;;21.41;42.09;99472.28;5016554;28;46260;-58
2021/11/03 07:45:19;;;;;;;;;5.75;4.50;;;;;21.40;41.91;99470.59;5016595;28;45188;-54
2021/11/03 07:47:44;;;;;;;;;5.25;4.75;;;;;21.38;42.14;99467.25;5016893;28;45699;-54
2021/11/03 07:50:15;;;;;;;;;2.75;2.00;;;;;21.38;42.04;99475.16;5016778;28;45548;-58
2021/11/03 07:52:41;;;;;;;;;5.50;5.50;;;;;21.37;42.51;99476.97;5016309;28;46956;-57
2021/11/03 07:55:07;;;;;;;;;4.75;4.75;;;;;21.36;42.11;99483.19;5016661;28;45414;-58
2021/11/03 07:57:33;;;;;;;;;5.00;5.00;;;;;21.35;42.29;99488.56;5016626;28;45312;-57
2021/11/03 07:59:58;;;;;;;;;4.50;4.50;;;;;21.34;42.31;99482.47;5016991;28;45514;-57
2021/11/03 08:02:24;;;;;;;;;5.00;5.00;;;;;21.34;42.09;99492.16;5016257;28;46716;-57
2021/11/03 08:04:49;;;;;;;;;5.75;5.00;;;;;21.34;42.27;99505.34;5016057;28;45408;-56
2021/11/03 08:07:14;;;;;;;;;6.00;4.00;;;;;21.34;42.35;99505.34;5016499;28;45376;-58
2021/11/03 08:09:45;;;;;;;;;4.00;4.00;;;;;21.31;42.37;99498.53;5015624;28;45633;-55
2021/11/03 08:12:11;;;;;;;;;5.00;5.00;;;;;21.32;42.14;99516.00;5016063;28;46088;-57
2021/11/03 08:14:37;;;;;;;;;3.75;3.75;;;;;21.31;42.40;99511.69;5016302;28;45360;-55
2021/11/03 08:17:10;;;;;;;;;5.00;4.00;;;;;21.33;42.46;99516.88;5016132;28;45267;-57
2021/11/03 08:19:40;;;;;;;;;5.50;5.50;;;;;21.32;42.71;99513.38;5016064;28;45620;-57
2021/11/03 08:22:06;;;;;;;;;4.00;4.00;;;;;21.30;42.40;99524.06;5015916;28;46270;-51
2021/11/03 08:24:31;;;;;;;;;6.00;4.25;;;;;21.30;42.75;99513.50;5016541;28;45914;-57
2021/11/03 08:26:57;;;;;;;;;7.00;6.00;;;;;21.28;42.32;99520.69;5016230;28;45425;-58
2021/11/03 08:29:23;;;;;;;;;5.00;5.00;;;;;21.28;42.30;99535.66;5016436;28;45397;-54
2021/11/03 08:31:55;;;;;;;;;6.00;4.25;;;;;21.27;42.05;99534.81;5013863;28;45732;-53
2021/11/03 08:34:23;;;;;;;;;5.00;5.00;;;;;21.28;42.44;99540.91;5015478;28;45395;-53
2021/11/03 08:36:49;;;;;;;;;5.00;5.00;;;;;21.28;42.54;99547.03;5016072;28;45472;-56
2021/11/03 08:39:14;;;;;;;;;4.00;4.00;;;;;21.27;42.71;99548.00;5015976;28;45441;-58
2021/11/03 08:41:39;;;;;;;;;5.25;4.00;;;;;21.29;42.65;99554.00;5015670;28;46183;-56
2021/11/03 08:44:05;;;;;;;;;4.00;4.00;;;;;21.29;42.75;99564.53;5015809;28;45393;-52
2021/11/03 08:46:30;;;;;;;;;4.50;3.75;;;;;21.31;42.77;99556.50;5015633;28;45516;-51
2021/11/03 08:48:59;;;;;;;;;4.00;3.00;;;;;21.33;42.90;99553.75;4997209;28;45576;-57
2021/11/03 08:51:33;;;;;;;;;4.00;4.00;;;;;21.32;42.53;99555.53;4995852;28;46803;-52
2021/11/03 08:54:00;;;;;;;;;4.75;4.75;;;;;21.33;42.89;99557.22;4996030;28;45886;-54
2021/11/03 08:56:26;;;;;;;;;5.00;5.00;;;;;21.31;42.87;99557.34;4996036;28;45317;-52
2021/11/03 08:58:51;;;;;;;;;5.00;5.00;;;;;21.33;42.73;99562.50;4996166;28;45463;-50
2021/11/03 09:01:18;;;;;;;;;5.25;5.25;;;;;21.34;42.93;99563.31;4995398;28;46701;-55
2021/11/03 09:03:44;;;;;;;;;5.75;4.50;;;;;21.32;42.43;99563.44;4998583;28;45505;-54
2021/11/03 09:06:09;;;;;;;;;5.75;5.75;;;;;21.33;42.94;99569.56;5005483;28;45444;-49
2021/11/03 09:08:39;;;;;;;;;3.25;3.25;;;;;21.30;42.46;99563.59;5003290;28;45578;-51
2021/11/03 09:11:05;;;;;;;;;5.50;4.00;;;;;21.29;42.59;99566.31;5006658;28;46189;-50
2021/11/03 09:13:32;;;;;;;;;3.50;3.50;;;;;21.29;42.40;99572.44;5006487;28;45553;-52
2021/11/03 09:15:59;;;;;;;;;4.00;4.00;;;;;21.28;42.63;99568.13;5013885;28;45486;-51
2021/11/03 09:18:25;;;;;;;;;4.00;4.00;;;;;21.29;42.44;99580.34;5005184;28;45552;-56
2021/11/03 09:20:53;;;;;;;;;5.00;5.00;;;;;21.28;42.39;99577.81;5003410;28;46337;-54
2021/11/03 09:23:19;;;;;;;;;5.00;5.00;;;;;21.28;42.74;99577.81;5017335;28;45644;-46
2021/11/03 09:25:46;;;;;;;;;3.25;3.25;;;;;21.24;42.73;99577.22;5017460;28;45382;-48
2021/11/03 09:28:12;;;;;;;;;5.25;3.75;;;;;21.26;42.83;99579.75;5001014;28;45331;-47
2021/11/03 09:30:38;;;;;;;;;5.75;5.75;;;;;21.25;42.87;99584.16;5018706;28;46438;-50
2021/11/03 09:33:06;;;;;;;;;3.25;3.25;;;;;21.25;42.71;99594.72;5019191;28;45373;-50
2021/11/03 09:35:41;;;;;;;;;5.25;5.25;;;;;21.26;42.47;99595.56;5018993;28;45282;-52
2021/11/03 09:38:09;;;;;;;;;4.50;4.50;;;;;21.25;42.69;99597.34;5019202;28;45316;-54
2021/11/03 09:40:57;;;;;;;;;5.00;4.00;;;;;21.24;42.47;99603.56;5018663;28;47154;-41
2021/11/03 09:43:36;;;;;;;;;4.50;4.50;;;;;21.25;42.58;99609.69;5018724;28;45775;-50
2021/11/03 09:46:16;;;;;;;;;4.75;4.75;;;;;21.21;42.26;99613.53;5018485;28;45376;-53
2021/11/03 09:48:42;;;;;;;;;4.00;4.00;;;;;21.21;42.53;99610.88;5019213;28;45334;-49
2021/11/03 09:51:16;;;;;;;;;5.00;5.00;;;;;21.23;42.18;99620.34;5018706;28;46406;-46
2021/11/03 09:53:48;;;;;;;;;7.50;5.00;;;;;21.23;42.47;99622.97;5018595;28;45827;-59
2021/11/03 09:56:22;;;;;;;;;5.75;4.75;;;;;21.20;42.26;99620.59;5018390;28;45349;-52
2021/11/03 09:58:56;;;;;;;;;6.50;5.25;;;;;21.21;41.86;99624.06;5018541;28;45380;-51
2021/11/03 10:01:39;;;;;;;;;5.00;5.00;;;;;21.18;42.27;99614.59;5018220;28;46530;-57
2021/11/03 10:04:35;;;;;;;;;5.00;5.00;;;;;21.18;41.89;99611.97;5018194;28;45427;-52
2021/11/03 10:07:03;;;;;;;;;6.25;5.00;;;;;21.17;41.83;99619.03;5018325;28;45239;-59
2021/11/03 10:09:29;;;;;;;;;8.00;5.50;;;;;21.16;42.18;99620.00;5018383;28;45290;-59
2021/11/03 10:11:54;;;;;;;;;4.50;4.50;;;;;21.16;42.03;99627.06;5018040;28;46346;-59
2021/11/03 10:14:21;;;;;;;;;7.50;6.25;;;;;21.15;42.23;99630.63;5018071;28;45333;-59
2021/11/03 10:16:51;;;;;;;;;6.75;4.75;;;;;21.13;41.86;99629.91;5018161;28;45504;-53
2021/11/03 10:19:18;;;;;;;;;7.25;6.00;;;;;21.13;41.92;99630.78;5018232;28;45491;-55
2021/11/03 10:22:00;;;;;;;;;6.25;6.00;;;;;21.13;42.43;99629.91;5017726;28;47334;-59
2021/11/03 10:24:37;;;;;;;;;4.00;4.00;;;;;21.12;42.51;99625.59;5017781;28;45759;-56
2021/11/03 10:27:08;;;;;;;;;5.00;5.00;;;;;21.13;42.11;99628.13;5018183;28;45319;-53
2021/11/03 10:29:38;;;;;;;;;4.75;4.75;;;;;21.12;42.05;99630.88;5018574;28;45445;-59
2021/11/03 10:32:03;;;;;;;;;6.00;5.00;;;;;21.13;42.27;99635.19;5017987;28;45478;-58
2021/11/03 10:34:34;;;;;;;;;6.75;6.25;;;;;21.13;42.29;99637.81;5017691;28;45298;-55
2021/11/03 10:37:25;;;;;;;;;5.00;5.00;;;;;21.14;42.15;99636.88;5018055;28;45251;-54
2021/11/03 10:39:57;;;;;;;;;4.00;4.00;;;;;21.13;42.03;99637.81;5018348;28;45346;-59
2021/11/03 10:42:31;;;;;;;;;4.00;4.00;;;;;21.12;42.00;99630.88;5017722;28;45350;-55
2021/11/03 10:45:15;;;;;;;;;6.00;4.75;;;;;21.11;42.10;99645.03;5018016;28;45263;-54
2021/11/03 10:47:42;;;;;;;;;4.75;3.75;;;;;21.09;42.11;99637.22;5018137;28;45332;-58
2021/11/03 10:50:31;;;;;;;;;4.50;4.50;;;;;21.07;42.10;99643.56;5018559;28;45515;-56
2021/11/03 10:53:20;;;;;;;;;4.75;4.75;;;;;21.07;42.19;99636.50;5015922;28;46360;-56
2021/11/03 10:55:57;;;;;;;;;3.25;3.25;;;;;21.06;42.03;99637.44;5017959;28;45258;-56
2021/11/03 10:58:32;;;;;;;;;5.00;5.00;;;;;21.06;42.31;99639.25;5017969;28;45305;-59
2021/11/03 11:01:03;;;;;;;;;4.25;4.25;;;;;21.05;42.01;99641.06;5017874;28;45372;-54
2021/11/03 11:03:37;;;;;;;;;3.75;3.75;;;;;21.05;42.03;99640.22;5017397;28;46517;-55
2021/11/03 11:06:29;;;;;;;;;4.00;4.00;;;;;21.03;41.93;99642.13;4999781;28;45332;-58
2021/11/03 11:09:20;;;;;;;;;4.50;4.50;;;;;21.01;42.18;99643.06;5008399;28;45417;-57
2021/11/03 11:11:49;;;;;;;;;7.25;4.50;;;;;21.01;41.69;99640.44;5000063;28;45226;-58
2021/11/03 11:14:22;;;;;;;;;5.75;5.00;;;;;21.04;41.94;99643.81;5017232;28;46171;-58
2021/11/03 11:17:14;;;;;;;;;4.50;4.25;;;;;21.03;42.01;99642.97;5017566;28;45262;-58
2021/11/03 11:19:46;;;;;;;;;4.00;4.00;;;;;21.02;41.98;99636.03;5017646;28;45336;-46
2021/11/03 11:22:33;;;;;;;;;5.75;4.50;;;;;21.05;42.34;99645.47;5017582;28;45401;-51
2021/11/03 11:25:14;;;;;;;;;4.00;4.00;;;;;21.04;41.98;99643.81;5017041;28;47427;-55
2021/11/03 11:28:02;;;;;;;;;4.75;4.75;;;;;21.05;42.28;99646.34;5017559;28;45770;-53
2021/11/03 11:30:59;;;;;;;;;4.00;4.00;;;;;21.06;42.28;99644.53;5017297;28;45411;-58
2021/11/03 11:33:29;;;;;;;;;3.75;3.75;;;;;21.06;42.26;99648.00;5016715;28;45440;-59
2021/11/03 11:36:04;;;;;;;;;4.25;4.25;;;;;21.06;42.01;99647.16;5017248;28;46836;-60
2021/11/03 11:38:54;;;;;;;;;4.75;4.75;;;;;21.05;42.09;99653.38;5016960;28;45769;-59